ADDS METAR Data INFO
IDs: Format: Raw Decoded Include TAF

Data at: 1751 UTC 21 Oct 2017

KUGN 211655Z 19014KT 10SM CLR 21/13 A3003 RMK AO2 SLP160 T02110128
KUGN 211555Z 20013KT 10SM CLR 21/12 A3004 RMK AO2 SLP164 T02060122
KUGN 211455Z 20012KT 10SM CLR 18/11 A3005 RMK AO2 SLP167 60000 T01780111 53006
KUGN 211355Z 18010KT 10SM FEW110 17/10 A3003 RMK AO2 RAB36E45 SLP163 P0000 T01670100
KUGN 211255Z COR 18009KT 10SM FEW120 16/09 A3003 RMK AO2 SLP164 T01610094
KUGN 211155Z 19006G15KT 10SM CLR 17/09 A3003 RMK AO2 SLP162 T01670094 10189 20161 50000
KUGN 211055Z 18009KT 10SM CLR 17/09 A3002 RMK AO2 SLP160 T01670094
KUGN 210955Z AUTO 20011KT 10SM CLR 17/09 A3003 RMK AO2 SLP161 T01720094
KUGN 210855Z AUTO 18009KT 10SM SCT120 18/09 A3003 RMK AO2 SLP159 T01780094 58002
KUGN 210755Z AUTO 20010KT 10SM FEW120 18/09 A3003 RMK AO2 SLP159 T01830089
KUGN 210655Z AUTO 20013KT 10SM CLR 18/09 A3004 RMK AO2 SLP163 T01830089
KUGN 210555Z AUTO 19011KT 10SM CLR 18/09 A3003 RMK AO2 SLP161 T01830089 10206 20183 402560094 51001
KUGN 210455Z AUTO 20013KT 10SM CLR 19/09 A3003 RMK AO2 SLP161 T01940094
KUGN 210355Z AUTO 19010KT 10SM CLR 19/09 A3003 RMK AO2 SLP162 T01890089
KUGN 210255Z AUTO 18012KT 9SM CLR 19/09 A3003 RMK AO2 SLP162 T01940089 55001
KUGN 210155Z AUTO 18009KT 8SM CLR 20/09 A3002 RMK AO2 SLP161 T02000094
KUGN 210055Z 18009KT 9SM CLR 20/10 A3003 RMK AO2 SLP165 T02000100
KUGN 202355Z 18006KT 10SM CLR 20/11 A3003 RMK AO2 SLP166 T02000106 10256 20194 55005
KUGN 202255Z 18006KT 10SM CLR 21/11 A3003 RMK AO2 SLP165 T02110111
KUGN 202155Z 18008KT 10SM CLR 23/11 A3004 RMK AO2 SLP166 T02280111
KUGN 202055Z 19014KT 10SM CLR 24/11 A3005 RMK AO2 SLP168 T02440111 56017
KUGN 201955Z 19012KT 10SM CLR 25/11 A3006 RMK AO2 SLP171 T02500111
KUGN 201855Z 21010KT 10SM CLR 24/11 A3008 RMK AO2 SLP178 T02440111
KUGN 201755Z 21010KT 10SM CLR 24/12 A3010 RMK AO2 SLP186 T02440122 10244 20122 58017
KUGN 201655Z 21010KT 10SM CLR 23/13 A3012 RMK AO2 SLP198 T02280128
KUGN 201555Z 21010KT 10SM CLR 21/12 A3014 RMK AO2 SLP203 T02110122 $
KUGN 201455Z 22008KT 10SM CLR 18/11 A3015 RMK AO2 SLP208 T01780111 50004
KUGN 201355Z 22010KT 10SM CLR 16/11 A3015 RMK AO2 SLP210 T01560106
KUGN 201255Z 22008KT 9SM CLR 13/09 A3015 RMK AO2 SLP209 T01280094
KUGN 201155Z 22008KT 10SM CLR 12/08 A3014 RMK AO2 SLP205 T01220083 10122 20094 50005
KUGN 201055Z 22007KT 10SM CLR 12/08 A3014 RMK AO2 SLP205 T01220078
KUGN 200955Z AUTO 23006KT 10SM CLR 12/07 A3013 RMK AO2 SLP202 T01170067
KUGN 200855Z AUTO 22007KT 10SM CLR 12/05 A3012 RMK AO2 SLP199 T01170050 56004
KUGN 200755Z AUTO 21005KT 10SM CLR 11/04 A3013 RMK AO2 SLP199 T01060039
KUGN 200655Z AUTO 20004KT 10SM CLR 11/03 A3013 RMK AO2 SLP201 T01060028
KUGN 200555Z AUTO 19007KT 10SM CLR 12/02 A3014 RMK AO2 SLP202 T01170022 10133 20067 401830067 56003